createdAt,value
2022-08-04T00:01:22.618Z,3.00
2022-08-04T00:03:55.655Z,3.40
2022-08-04T00:06:24.235Z,3.03
2022-08-04T00:08:48.262Z,2.60
2022-08-04T00:11:15.197Z,3.00
2022-08-04T00:13:59.698Z,3.10
2022-08-04T00:16:24.178Z,2.90
2022-08-04T00:18:58.598Z,3.00
2022-08-04T00:21:24.140Z,3.20
2022-08-04T00:24:11.005Z,3.00
2022-08-04T00:26:28.086Z,3.30
2022-08-04T00:28:50.250Z,3.33
2022-08-04T00:31:12.948Z,2.73
2022-08-04T00:33:38.410Z,3.20
2022-08-04T00:36:02.398Z,3.23
2022-08-04T00:38:24.506Z,3.30
2022-08-04T00:40:52.086Z,3.50
2022-08-04T00:43:17.947Z,3.47
2022-08-04T00:46:17.204Z,2.90
2022-08-04T00:48:52.568Z,3.27
2022-08-04T00:51:27.290Z,3.20
2022-08-04T00:53:56.938Z,3.30
2022-08-04T00:56:33.047Z,3.10
2022-08-04T00:59:05.214Z,3.23
2022-08-04T01:01:41.041Z,3.33
2022-08-04T01:04:05.884Z,3.20
2022-08-04T01:06:36.825Z,2.97
2022-08-04T01:09:07.056Z,3.07
2022-08-04T01:11:57.414Z,3.57
2022-08-04T01:14:47.718Z,3.23
2022-08-04T01:17:18.043Z,3.20
2022-08-04T01:20:07.020Z,3.60
2022-08-04T01:22:51.904Z,3.20
2022-08-04T01:25:41.324Z,3.20
2022-08-04T01:28:21.062Z,3.20
2022-08-04T01:30:44.656Z,3.47
2022-08-04T01:33:10.671Z,3.10
2022-08-04T01:35:47.492Z,3.33
2022-08-04T01:38:21.876Z,3.17
2022-08-04T01:40:44.038Z,3.20
2022-08-04T01:43:06.239Z,3.17
2022-08-04T01:45:28.923Z,3.00
2022-08-04T01:47:53.893Z,3.00
2022-08-04T01:50:15.601Z,3.37
2022-08-04T01:52:38.855Z,3.33
2022-08-04T01:55:01.071Z,3.23
2022-08-04T01:57:37.561Z,3.40
2022-08-04T02:00:01.373Z,3.30
2022-08-04T02:02:24.317Z,3.20
2022-08-04T02:04:47.775Z,3.10
2022-08-04T02:07:19.028Z,3.00
2022-08-04T02:09:54.584Z,3.33
2022-08-04T02:12:23.462Z,3.13
2022-08-04T02:14:49.539Z,3.20
2022-08-04T02:17:13.180Z,3.20
2022-08-04T02:19:37.683Z,3.20
2022-08-04T02:22:06.750Z,3.17
2022-08-04T02:24:29.172Z,3.30
2022-08-04T02:26:53.424Z,3.30
2022-08-04T02:29:18.292Z,3.30
2022-08-04T02:31:41.329Z,3.20
2022-08-04T02:34:08.904Z,3.27
2022-08-04T02:36:32.844Z,3.23
2022-08-04T02:39:01.117Z,3.33
2022-08-04T02:41:24.204Z,2.97
2022-08-04T02:43:51.758Z,2.90
2022-08-04T02:46:17.729Z,3.20
2022-08-04T02:48:41.786Z,3.13
2022-08-04T02:51:04.548Z,3.30
2022-08-04T02:53:26.585Z,3.10
2022-08-04T02:55:51.046Z,3.50
2022-08-04T02:58:16.583Z,3.43
2022-08-04T03:00:38.864Z,3.47
2022-08-04T03:03:12.959Z,3.50
2022-08-04T03:05:50.186Z,3.60
2022-08-04T03:08:48.176Z,3.43
2022-08-04T03:11:30.197Z,3.53
2022-08-04T03:14:23.879Z,3.60
2022-08-04T03:17:09.057Z,3.47
2022-08-04T03:19:59.854Z,3.53
2022-08-04T03:23:11.529Z,3.30
2022-08-04T03:26:12.640Z,3.30
2022-08-04T03:29:35.260Z,3.20
2022-08-04T03:32:41.826Z,3.87
2022-08-04T03:35:26.374Z,3.37
2022-08-04T03:38:15.159Z,3.70
2022-08-04T03:40:47.765Z,3.10
2022-08-04T03:43:56.950Z,3.40
2022-08-04T03:46:42.902Z,3.30
2022-08-04T03:49:49.116Z,3.30
2022-08-04T03:52:36.221Z,3.27
2022-08-04T03:55:25.073Z,3.37
2022-08-04T03:58:15.982Z,3.40
2022-08-04T04:00:42.049Z,3.00
2022-08-04T04:03:32.437Z,3.33
2022-08-04T04:06:24.380Z,3.83
2022-08-04T04:09:04.376Z,3.50
2022-08-04T04:11:57.583Z,3.23
2022-08-04T04:14:29.950Z,3.47
2022-08-04T04:17:04.145Z,3.30
2022-08-04T04:19:38.155Z,3.70
2022-08-04T04:22:15.583Z,3.67
2022-08-04T04:25:13.563Z,3.40
2022-08-04T04:27:49.105Z,3.30
2022-08-04T04:30:14.151Z,3.67
2022-08-04T04:32:57.630Z,3.40
2022-08-04T04:35:25.178Z,3.93
2022-08-04T04:38:02.188Z,4.10
2022-08-04T04:40:34.138Z,4.03
2022-08-04T04:43:12.980Z,3.60
2022-08-04T04:45:37.268Z,3.70
2022-08-04T04:48:09.014Z,3.60
2022-08-04T04:50:38.166Z,3.67
2022-08-04T04:53:18.398Z,3.53
2022-08-04T04:55:48.225Z,3.50
2022-08-04T04:58:13.505Z,4.27
2022-08-04T05:00:44.377Z,3.87
2022-08-04T05:03:29.017Z,3.90
2022-08-04T05:06:09.536Z,3.60
2022-08-04T05:08:45.289Z,4.00
2022-08-04T05:11:34.559Z,4.27
2022-08-04T05:14:38.678Z,4.20
2022-08-04T05:16:43.272Z,3.83
2022-08-04T05:19:13.311Z,3.90
2022-08-04T05:21:41.190Z,3.90
2022-08-04T05:24:07.598Z,4.60
2022-08-04T05:26:32.890Z,4.33
2022-08-04T05:28:58.055Z,4.03
2022-08-04T05:31:21.966Z,3.90
2022-08-04T05:33:48.777Z,3.80
2022-08-04T05:36:21.727Z,4.13
2022-08-04T05:38:52.564Z,4.50
2022-08-04T05:41:14.691Z,3.97
2022-08-04T05:43:37.778Z,4.10
2022-08-04T05:46:00.576Z,3.63
2022-08-04T05:48:22.334Z,3.70
2022-08-04T05:50:43.741Z,3.93
2022-08-04T05:53:05.383Z,3.80
2022-08-04T05:55:58.368Z,4.00
2022-08-04T05:58:09.707Z,3.63
2022-08-04T06:00:41.104Z,4.10
2022-08-04T06:03:03.805Z,3.77
2022-08-04T06:05:26.356Z,4.13
2022-08-04T06:08:12.667Z,3.70
2022-08-04T06:10:30.713Z,3.70
2022-08-04T06:12:54.648Z,3.90
2022-08-04T06:15:19.616Z,3.30
2022-08-04T06:19:57.670Z,3.50
2022-08-04T06:20:35.118Z,3.70
2022-08-04T06:23:01.011Z,3.40
2022-08-04T06:25:25.244Z,3.33
2022-08-04T06:27:47.890Z,3.50
2022-08-04T06:30:14.576Z,3.50
2022-08-04T06:32:47.291Z,3.37
2022-08-04T06:35:11.278Z,3.87
2022-08-04T06:37:42.694Z,3.23
2022-08-04T06:40:29.273Z,3.60
2022-08-04T06:42:49.989Z,3.43
2022-08-04T06:45:12.228Z,3.87
2022-08-04T06:47:34.268Z,3.80
2022-08-04T06:51:27.411Z,3.73
2022-08-04T06:52:40.981Z,3.80
2022-08-04T06:55:02.804Z,3.83
2022-08-04T06:57:26.429Z,3.40
2022-08-04T06:59:50.161Z,3.60
2022-08-04T07:02:15.971Z,3.80
2022-08-04T07:04:37.967Z,3.73
2022-08-04T07:06:59.324Z,4.00
2022-08-04T07:09:22.238Z,3.60
2022-08-04T07:11:44.578Z,3.40
2022-08-04T07:14:07.053Z,4.10
2022-08-04T07:16:30.898Z,3.63
2022-08-04T07:18:52.677Z,3.60
2022-08-04T07:21:21.545Z,3.50
2022-08-04T07:23:43.023Z,3.57
2022-08-04T07:26:13.017Z,3.40
2022-08-04T07:28:34.731Z,3.40
2022-08-04T07:30:58.190Z,3.37
2022-08-04T07:33:20.121Z,3.40
2022-08-04T07:36:09.972Z,3.60
2022-08-04T07:38:27.718Z,3.43
2022-08-04T07:40:49.828Z,3.03
2022-08-04T07:43:12.785Z,3.30
2022-08-04T07:45:34.349Z,3.50
2022-08-04T07:48:05.012Z,3.20
2022-08-04T07:50:27.833Z,3.30
2022-08-04T07:53:03.616Z,3.53
2022-08-04T07:55:31.397Z,3.20
2022-08-04T07:57:53.062Z,3.40
2022-08-04T08:00:16.504Z,2.97
2022-08-04T08:02:38.721Z,3.10
2022-08-04T08:05:00.538Z,3.10
2022-08-04T08:07:22.563Z,3.13
2022-08-04T08:09:43.966Z,3.20
2022-08-04T08:12:36.979Z,3.20
2022-08-04T08:14:48.403Z,3.00
2022-08-04T08:17:11.469Z,3.00
2022-08-04T08:19:34.791Z,2.83
2022-08-04T08:21:59.297Z,2.67
2022-08-04T08:24:21.726Z,2.90
2022-08-04T08:26:43.158Z,2.83
2022-08-04T08:29:05.029Z,2.90
2022-08-04T08:31:27.818Z,2.73
2022-08-04T08:34:10.070Z,2.50
2022-08-04T08:36:36.784Z,2.90
2022-08-04T08:39:03.531Z,2.53
2022-08-04T08:42:03.488Z,2.47
2022-08-04T08:44:57.444Z,2.73
2022-08-04T08:47:30.102Z,2.23
2022-08-04T08:50:41.890Z,2.30
2022-08-04T08:53:15.753Z,2.50
2022-08-04T08:55:47.002Z,2.70
2022-08-04T08:58:17.612Z,2.40
2022-08-04T09:00:47.643Z,2.30
2022-08-04T09:03:44.324Z,2.60
2022-08-04T09:06:25.330Z,2.80
2022-08-04T09:09:21.842Z,2.40
2022-08-04T09:11:47.244Z,2.53
2022-08-04T09:14:14.019Z,2.40
2022-08-04T09:16:39.323Z,2.40
2022-08-04T09:19:04.432Z,2.93
2022-08-04T09:21:31.950Z,2.57
2022-08-04T09:24:03.508Z,2.50
2022-08-04T09:26:50.041Z,2.70
2022-08-04T09:29:27.920Z,2.90
2022-08-04T09:32:07.377Z,2.50
2022-08-04T09:34:38.963Z,2.77
2022-08-04T09:37:13.303Z,2.67
2022-08-04T09:39:44.527Z,2.80
2022-08-04T09:42:25.656Z,2.53
2022-08-04T09:45:06.415Z,2.43
2022-08-04T09:47:39.448Z,2.40
2022-08-04T09:50:10.365Z,2.23
2022-08-04T09:52:51.288Z,2.27
2022-08-04T09:55:32.161Z,2.60
2022-08-04T09:57:59.272Z,2.30
2022-08-04T10:00:36.357Z,2.60
2022-08-04T10:03:03.016Z,2.57
2022-08-04T10:05:28.536Z,2.30
2022-08-04T10:08:15.405Z,2.60
2022-08-04T10:10:42.882Z,2.60
2022-08-04T10:13:23.158Z,2.50
2022-08-04T10:15:49.635Z,2.30
2022-08-04T10:18:18.851Z,2.50
2022-08-04T10:20:56.435Z,2.30
2022-08-04T10:23:56.405Z,2.47
2022-08-04T10:26:22.177Z,2.70
2022-08-04T10:28:47.961Z,2.43
2022-08-04T10:31:12.348Z,2.60
2022-08-04T10:33:43.017Z,2.43
2022-08-04T10:36:08.786Z,2.70
2022-08-04T10:38:44.493Z,2.47
2022-08-04T10:41:14.628Z,2.47
2022-08-04T10:44:42.742Z,2.50
2022-08-04T10:47:38.203Z,2.60
2022-08-04T10:50:02.166Z,2.40
2022-08-04T10:52:34.917Z,2.77
2022-08-04T10:55:08.615Z,2.57
2022-08-04T10:57:35.988Z,2.90
2022-08-04T11:00:03.387Z,2.73
2022-08-04T11:02:35.999Z,2.70
2022-08-04T11:05:01.464Z,2.50
2022-08-04T11:07:31.037Z,2.60
2022-08-04T11:10:18.093Z,2.40
2022-08-04T11:12:45.574Z,2.90
2022-08-04T11:15:55.436Z,2.60
2022-08-04T11:18:24.574Z,2.20
2022-08-04T11:20:52.847Z,2.37
2022-08-04T11:23:17.341Z,2.40
2022-08-04T11:25:52.101Z,2.23
2022-08-04T11:28:23.476Z,2.23
2022-08-04T11:30:52.648Z,1.90
2022-08-04T11:33:23.314Z,2.20
2022-08-04T11:35:48.316Z,2.17
2022-08-04T11:38:12.720Z,2.40
2022-08-04T11:40:38.673Z,2.27
2022-08-04T11:43:03.058Z,2.00
2022-08-04T11:45:33.267Z,2.20
2022-08-04T11:48:01.660Z,2.20
2022-08-04T11:51:06.696Z,2.43
2022-08-04T11:53:36.492Z,2.30
2022-08-04T11:56:09.611Z,2.30
2022-08-04T11:59:32.100Z,2.27
2022-08-04T12:02:07.277Z,2.10
2022-08-04T12:04:39.287Z,2.40
2022-08-04T12:08:02.549Z,2.17
2022-08-04T12:10:47.089Z,2.00
2022-08-04T12:13:17.701Z,2.20
2022-08-04T12:16:43.842Z,2.20
2022-08-04T12:19:26.042Z,2.20
2022-08-04T12:22:34.805Z,2.20
2022-08-04T12:26:00.726Z,2.40
2022-08-04T12:29:24.921Z,2.20
2022-08-04T12:32:35.287Z,2.30
2022-08-04T12:35:05.182Z,2.20
2022-08-04T12:37:34.552Z,2.43
2022-08-04T12:40:31.962Z,2.40
2022-08-04T12:43:34.643Z,2.40
2022-08-04T12:46:55.859Z,2.23
2022-08-04T12:50:30.775Z,2.40
2022-08-04T12:53:03.632Z,2.25
2022-08-04T12:55:28.001Z,2.30
2022-08-04T12:57:51.143Z,2.40
2022-08-04T13:00:13.593Z,2.40
2022-08-04T13:02:41.944Z,2.40
2022-08-04T13:05:23.719Z,2.40
2022-08-04T13:07:53.137Z,2.10
2022-08-04T13:10:19.826Z,2.47
2022-08-04T13:12:42.157Z,2.30
2022-08-04T13:15:18.183Z,2.40
2022-08-04T13:17:59.159Z,2.45
2022-08-04T13:20:27.368Z,2.42
2022-08-04T13:22:50.189Z,2.30
2022-08-04T13:26:40.766Z,2.65
2022-08-04T13:27:57.903Z,2.80
2022-08-04T13:30:23.011Z,2.40
2022-08-04T13:32:46.646Z,2.33
2022-08-04T13:35:10.520Z,2.60
2022-08-04T13:37:39.128Z,2.40
2022-08-04T13:40:04.861Z,2.42
2022-08-04T13:42:27.663Z,2.33
2022-08-04T13:44:51.258Z,2.70
2022-08-04T13:47:16.464Z,2.67
2022-08-04T13:50:00.978Z,2.50
2022-08-04T13:52:19.990Z,2.60
2022-08-04T13:54:44.763Z,2.30
2022-08-04T13:57:16.421Z,2.35
2022-08-04T13:59:41.403Z,2.58
2022-08-04T14:02:06.333Z,2.30
2022-08-04T14:04:31.417Z,2.30
2022-08-04T14:07:56.396Z,2.40
2022-08-04T14:10:18.064Z,2.28
2022-08-04T14:12:47.429Z,2.50
2022-08-04T14:16:00.961Z,2.50
2022-08-04T14:18:20.899Z,2.42
2022-08-04T14:20:59.658Z,2.50
2022-08-04T14:23:21.547Z,2.60
2022-08-04T14:25:48.446Z,2.40
2022-08-04T14:29:26.479Z,2.47
2022-08-04T14:31:57.874Z,2.70
2022-08-04T14:34:30.237Z,2.80
2022-08-04T14:37:16.982Z,2.47
2022-08-04T14:40:17.680Z,2.45
2022-08-04T14:43:48.957Z,2.25
2022-08-04T14:46:14.144Z,2.58
2022-08-04T14:48:51.129Z,2.40
2022-08-04T14:52:13.154Z,2.28
2022-08-04T14:54:52.572Z,2.47
2022-08-04T14:57:17.269Z,2.30
2022-08-04T14:59:59.444Z,2.35
2022-08-04T15:02:43.600Z,2.50
2022-08-04T15:06:00.033Z,2.72
2022-08-04T15:08:20.893Z,2.63
2022-08-04T15:11:14.149Z,2.60
2022-08-04T15:13:45.142Z,2.50
2022-08-04T15:16:08.729Z,2.72
2022-08-04T15:18:30.680Z,2.78
2022-08-04T15:20:52.946Z,2.60
2022-08-04T15:23:14.571Z,2.70
2022-08-04T15:25:45.793Z,2.78
2022-08-04T15:28:14.997Z,2.83
2022-08-04T15:30:53.369Z,2.78
2022-08-04T15:33:23.993Z,2.90
2022-08-04T15:36:56.333Z,2.60
2022-08-04T15:39:31.562Z,2.70
2022-08-04T15:42:18.891Z,2.83
2022-08-04T15:45:08.904Z,3.00
2022-08-04T15:48:02.433Z,2.80
2022-08-04T15:50:27.861Z,2.65
2022-08-04T15:53:10.101Z,2.67
2022-08-04T15:55:43.822Z,2.67
2022-08-04T15:58:19.741Z,2.55
2022-08-04T16:01:14.916Z,2.47
2022-08-04T16:03:58.246Z,2.55
2022-08-04T16:07:57.204Z,2.45
2022-08-04T16:11:02.784Z,2.60
2022-08-04T16:13:25.955Z,2.60
2022-08-04T16:16:06.444Z,2.88
2022-08-04T16:18:59.270Z,2.50
2022-08-04T16:22:34.449Z,2.70
2022-08-04T16:25:52.054Z,2.63
2022-08-04T16:28:34.590Z,2.50
2022-08-04T16:31:38.958Z,2.70
2022-08-04T16:34:48.400Z,2.78
2022-08-04T16:37:13.503Z,2.50
2022-08-04T16:40:10.458Z,2.40
2022-08-04T16:42:57.287Z,2.70
2022-08-04T16:46:21.758Z,2.67
2022-08-04T16:48:52.654Z,2.60
2022-08-04T16:51:51.640Z,2.63
2022-08-04T16:54:23.780Z,2.70
2022-08-04T16:57:01.439Z,2.53
2022-08-04T16:59:23.225Z,2.43
2022-08-04T17:01:49.445Z,2.47
2022-08-04T17:04:26.068Z,2.80
2022-08-04T17:08:26.954Z,2.73
2022-08-04T17:11:33.997Z,2.83
2022-08-04T17:14:17.173Z,3.03
2022-08-04T17:18:03.850Z,2.80
2022-08-04T17:21:01.657Z,2.80
2022-08-04T17:24:23.121Z,2.90
2022-08-04T17:26:53.877Z,2.80
2022-08-04T17:29:43.622Z,2.60
2022-08-04T17:32:12.029Z,2.90
2022-08-04T17:35:03.895Z,3.00
2022-08-04T17:38:23.693Z,2.77
2022-08-04T17:41:43.040Z,2.93
2022-08-04T17:44:16.778Z,2.50
2022-08-04T17:46:41.899Z,2.80
2022-08-04T17:49:07.229Z,2.40
2022-08-04T17:52:05.580Z,2.80
2022-08-04T17:55:06.744Z,2.70
2022-08-04T17:57:58.794Z,2.93
2022-08-04T18:01:23.783Z,2.90
2022-08-04T18:04:29.207Z,2.80
2022-08-04T18:08:34.279Z,2.80
2022-08-04T18:10:34.806Z,3.10
2022-08-04T18:13:53.366Z,2.90
2022-08-04T18:16:22.079Z,2.90
2022-08-04T18:18:48.841Z,3.07
2022-08-04T18:21:59.429Z,2.93
2022-08-04T18:24:55.697Z,2.80
2022-08-04T18:27:18.690Z,3.37
2022-08-04T18:30:54.960Z,2.90
2022-08-04T18:34:20.513Z,3.17
2022-08-04T18:36:57.421Z,3.07
2022-08-04T18:40:09.686Z,3.40
2022-08-04T18:42:06.151Z,3.77
2022-08-04T18:44:30.787Z,3.60
2022-08-04T18:47:58.432Z,3.40
2022-08-04T18:51:01.773Z,3.47
2022-08-04T18:53:03.536Z,3.50
2022-08-04T18:55:55.476Z,3.70
2022-08-04T18:58:27.411Z,3.90
2022-08-04T19:01:14.173Z,4.37
2022-08-04T19:03:35.794Z,3.70
2022-08-04T19:06:25.821Z,3.77
2022-08-04T19:09:52.114Z,3.70
2022-08-04T19:12:15.565Z,3.70
2022-08-04T19:14:53.236Z,4.00
2022-08-04T19:17:53.808Z,3.87
2022-08-04T19:20:11.135Z,3.80
2022-08-04T19:24:10.609Z,3.90
2022-08-04T19:25:41.698Z,3.50
2022-08-04T19:28:02.510Z,3.73
2022-08-04T19:30:24.412Z,3.57
2022-08-04T19:32:48.251Z,3.93
2022-08-04T19:35:10.946Z,4.13
2022-08-04T19:37:56.772Z,4.00
2022-08-04T19:40:16.625Z,3.87
2022-08-04T19:43:03.774Z,3.87
2022-08-04T19:45:40.189Z,4.33
2022-08-04T19:48:22.026Z,3.97
2022-08-04T19:50:44.153Z,4.07
2022-08-04T19:53:19.489Z,3.97
2022-08-04T19:55:42.805Z,4.30
2022-08-04T19:58:11.818Z,4.10
2022-08-04T20:00:34.577Z,3.77
2022-08-04T20:02:56.171Z,4.00
2022-08-04T20:05:17.734Z,4.07
2022-08-04T20:07:55.506Z,4.17
2022-08-04T20:10:18.741Z,4.00
2022-08-04T20:12:47.145Z,4.33
2022-08-04T20:15:18.170Z,3.90
2022-08-04T20:18:08.315Z,3.83
2022-08-04T20:20:21.447Z,4.00
2022-08-04T20:22:51.788Z,4.10
2022-08-04T20:25:35.625Z,4.00
2022-08-04T20:28:00.081Z,4.20
2022-08-04T20:30:22.473Z,4.20
2022-08-04T20:32:52.752Z,4.13
2022-08-04T20:35:15.918Z,4.37
2022-08-04T20:37:56.785Z,4.20
2022-08-04T20:40:23.173Z,4.67
2022-08-04T20:42:46.231Z,4.73
2022-08-04T20:45:16.118Z,5.10
2022-08-04T20:47:39.466Z,5.50
2022-08-04T20:50:01.285Z,5.20
2022-08-04T20:52:22.845Z,5.30
2022-08-04T20:54:49.238Z,4.30
2022-08-04T20:57:17.926Z,4.50
2022-08-04T21:02:41.954Z,4.80
2022-08-04T21:05:07.053Z,5.47
2022-08-04T21:07:31.412Z,5.10
2022-08-04T21:09:58.256Z,5.73
2022-08-04T21:12:28.018Z,5.23
2022-08-04T21:14:50.623Z,5.63
2022-08-04T21:17:16.932Z,5.40
2022-08-04T21:19:40.382Z,5.40
2022-08-04T21:22:06.784Z,5.40
2022-08-04T21:24:35.913Z,5.07
2022-08-04T21:26:58.076Z,5.47
2022-08-04T21:29:19.796Z,5.63
2022-08-04T21:31:50.409Z,6.97
2022-08-04T21:34:13.212Z,6.43
2022-08-04T21:36:36.512Z,6.73
2022-08-04T21:38:58.169Z,6.80
2022-08-04T21:41:24.179Z,6.33
2022-08-04T21:43:46.994Z,5.77
2022-08-04T21:46:08.403Z,6.00
2022-08-04T21:48:33.033Z,6.00
2022-08-04T21:50:54.600Z,5.97
2022-08-04T21:53:19.743Z,6.07
2022-08-04T21:56:04.385Z,5.60
2022-08-04T21:58:29.025Z,5.07
2022-08-04T22:00:54.393Z,5.00
2022-08-04T22:03:52.608Z,4.97
2022-08-04T22:05:59.549Z,5.03
2022-08-04T22:08:23.659Z,5.20
2022-08-04T22:10:50.978Z,5.57
2022-08-04T22:13:12.438Z,6.00
2022-08-04T22:16:05.439Z,6.50
2022-08-04T22:18:27.520Z,5.90
2022-08-04T22:20:49.556Z,6.07
2022-08-04T22:23:17.054Z,6.03
2022-08-04T22:25:42.042Z,7.13
2022-08-04T22:28:07.877Z,6.57
2022-08-04T22:30:36.601Z,6.67
2022-08-04T22:32:58.667Z,5.93
2022-08-04T22:35:36.266Z,6.60
2022-08-04T22:38:05.625Z,6.20
2022-08-04T22:40:27.602Z,6.23
2022-08-04T22:42:53.017Z,6.23
2022-08-04T22:45:14.601Z,5.83
2022-08-04T22:47:37.142Z,5.50
2022-08-04T22:50:20.853Z,5.30
2022-08-04T22:52:56.027Z,5.10
2022-08-04T22:55:18.091Z,5.37
2022-08-04T22:58:05.481Z,6.03
2022-08-04T23:00:28.581Z,5.37
2022-08-04T23:02:50.977Z,5.10
2022-08-04T23:05:12.438Z,5.40
2022-08-04T23:07:47.365Z,6.13
2022-08-04T23:10:13.874Z,7.00
2022-08-04T23:12:35.118Z,6.80
2022-08-04T23:14:58.899Z,6.10
2022-08-04T23:17:21.958Z,5.57
2022-08-04T23:19:43.938Z,5.53
2022-08-04T23:22:20.151Z,6.60
2022-08-04T23:25:01.318Z,6.33
2022-08-04T23:27:25.597Z,6.77
2022-08-04T23:29:55.507Z,7.30
2022-08-04T23:32:20.298Z,6.80
2022-08-04T23:34:44.936Z,6.60
2022-08-04T23:37:07.401Z,6.40
2022-08-04T23:40:03.931Z,6.37
2022-08-04T23:42:14.992Z,6.30
2022-08-04T23:44:42.365Z,6.43
2022-08-04T23:47:08.025Z,6.27
2022-08-04T23:49:44.351Z,6.70
2022-08-04T23:52:08.374Z,6.20
2022-08-04T23:54:37.296Z,5.83
2022-08-04T23:57:08.762Z,6.10
2022-08-04T23:59:52.102Z,5.80
